Hovedside
METAR-TAF:

METAR-TAF

Lufthavner :

El Borma, Tunisia

breddegrad: 31-41N, lengdegrad: 009-10E, høyde over havet: 258 m

Gjeldene værobservasjon

Denne rapporten ble laget for 1 time og 43 minutter siden, klokken 03:00 UTC
Vind 2 kt fra skiftende retning
Temperatur 4°C
Luftfuktighet 56%
Trykk 1029 hPa

METAR: DTTR 290300Z AUTO VRB02KT NCD 04/M04 Q1029

Tid: 05:43 (04:43 UTC)

Varsel

Denne rapporten ble laget for 1 time og 43 minutter siden, klokken 03:00 UTC
Varsel gyldig fra 29. klokken 04 UTC til 29. klokken 13 UTC
Vind 3 kt fra skiftende retning
Sikt 10 km eller mer
ingen skyer under 1500 m og ingen bygeskyer

TAF: DTTR 290300Z 2904/2913 VRB03KT CAVOK

Værobservasjoner og værvarsel for over 4000 flyplasser (METAR- og TAF-rapporter).

Tilgjengelige stasjoner er representert av de røde og gule prikkene på kartet.

Hold musepekeren over prikken for å se navnet på stasjonen.

Klikk så for å se værobservasjoner og -varsler.

For å forandre kartet kan du klikke på den grønne knappen med svart kryss for å zoome inn, på den grønne knappen med strek for å zoome ut, eller på de grønne pilene for å se tilstøtende kart.


METAR-TAF: